createdAt,value
2022-07-25T00:07:41.624Z,72
2022-07-25T00:17:43.573Z,73
2022-07-25T01:07:54.684Z,68
2022-07-25T01:27:59.525Z,73
2022-07-25T01:48:04.250Z,73
2022-07-25T02:08:08.732Z,74
2022-07-25T02:18:11.054Z,77
2022-07-25T02:28:12.817Z,80
2022-07-25T02:38:15.132Z,80
2022-07-25T02:58:19.438Z,81
2022-07-25T03:08:22.089Z,82
2022-07-25T03:18:24.634Z,81
2022-07-25T03:38:29.398Z,80
2022-07-25T03:58:34.106Z,79
2022-07-25T04:08:36.731Z,79
2022-07-25T04:18:38.483Z,79
2022-07-25T04:28:40.854Z,78
2022-07-25T04:38:43.177Z,75
2022-07-25T04:48:46.262Z,74
2022-07-25T04:58:47.754Z,71
2022-07-25T05:08:49.635Z,69
2022-07-25T05:18:51.989Z,69
2022-07-25T05:28:54.434Z,65
2022-07-25T05:38:55.864Z,63
2022-07-25T05:48:58.105Z,58
2022-07-25T05:59:00.480Z,56
2022-07-25T06:01:38.916Z,56
2022-07-25T06:09:12.001Z,55
2022-07-25T06:19:13.879Z,54
2022-07-25T06:29:16.167Z,55
2022-07-25T06:39:18.864Z,53
2022-07-25T06:49:20.840Z,52
2022-07-25T06:59:22.930Z,51
2022-07-25T07:09:24.637Z,49
2022-07-25T07:29:29.212Z,47
2022-07-25T07:39:31.852Z,46
2022-07-25T07:49:36.820Z,46
2022-07-25T07:59:36.297Z,46
2022-07-25T08:09:38.857Z,44
2022-07-25T08:19:40.625Z,43
2022-07-25T08:29:42.629Z,43
2022-07-25T08:39:44.739Z,43
2022-07-25T08:49:47.313Z,41
2022-07-25T08:59:49.266Z,41
2022-07-25T09:19:54.073Z,41
2022-07-25T09:29:56.241Z,42
2022-07-25T10:00:03.180Z,41
2022-07-25T10:30:10.199Z,41
2022-07-25T10:40:12.631Z,43
2022-07-25T10:50:25.368Z,44
2022-07-25T11:00:17.364Z,45
2022-07-25T11:10:19.142Z,44
2022-07-25T11:20:20.969Z,42
2022-07-25T11:40:25.607Z,42
2022-07-25T12:40:39.006Z,40
2022-07-25T13:00:43.225Z,43
2022-07-25T13:10:45.631Z,44
2022-07-25T13:30:49.989Z,47
2022-07-25T13:40:56.969Z,47
2022-07-25T14:00:57.024Z,47
2022-07-25T14:10:59.431Z,48
2022-07-25T14:31:03.655Z,46
2022-07-25T14:41:09.094Z,46
2022-07-25T15:01:10.365Z,46
2022-07-25T15:11:12.698Z,49
2022-07-25T15:21:15.070Z,51
2022-07-25T15:31:17.279Z,53
2022-07-25T15:41:19.631Z,53
2022-07-25T16:01:23.658Z,54
2022-07-25T16:11:25.518Z,52
2022-07-25T16:21:28.123Z,52
2022-07-25T16:31:30.256Z,51
2022-07-25T16:41:31.978Z,49
2022-07-25T16:51:36.892Z,49
2022-07-25T17:01:36.508Z,49
2022-07-25T17:11:38.888Z,48
2022-07-25T17:21:40.754Z,48
2022-07-25T17:31:42.749Z,47
2022-07-25T17:41:44.971Z,48
2022-07-25T17:51:47.270Z,48
2022-07-25T18:01:49.375Z,49
2022-07-25T18:11:51.871Z,48
2022-07-25T18:21:54.124Z,49
2022-07-25T18:31:56.440Z,49
2022-07-25T18:52:00.264Z,48
2022-07-25T19:02:02.665Z,47
2022-07-25T19:12:04.390Z,48
2022-07-25T19:22:06.560Z,48
2022-07-25T19:32:08.421Z,49
2022-07-25T19:42:10.775Z,50
2022-07-25T19:52:13.209Z,51
2022-07-25T20:02:15.736Z,51
2022-07-25T20:12:18.300Z,52
2022-07-25T20:22:20.121Z,52
2022-07-25T20:32:22.108Z,53
2022-07-25T20:42:24.002Z,52
2022-07-25T20:52:26.295Z,51
2022-07-25T21:12:32.710Z,52
2022-07-25T21:22:32.576Z,52
2022-07-25T21:42:36.779Z,52
2022-07-25T21:52:38.940Z,54
2022-07-25T22:02:40.770Z,55
2022-07-25T22:12:42.765Z,55
2022-07-25T22:22:44.764Z,56
2022-07-25T22:32:47.404Z,57
2022-07-25T22:42:49.731Z,58
2022-07-25T22:52:51.612Z,60
2022-07-25T23:02:53.658Z,62
2022-07-25T23:12:55.666Z,62
2022-07-25T23:22:57.896Z,63
2022-07-25T23:32:59.998Z,64
2022-07-25T23:43:02.111Z,66
2022-07-25T23:53:04.728Z,66
